createdAt,value
2022-12-08T00:02:28.446Z,-1.48
2022-12-08T00:05:49.561Z,-1.51
2022-12-08T00:09:10.967Z,-1.59
2022-12-08T00:12:17.714Z,-1.53
2022-12-08T00:15:20.139Z,-1.53
2022-12-08T00:18:22.897Z,-1.58
2022-12-08T00:21:25.354Z,-1.66
2022-12-08T00:24:31.479Z,-1.87
2022-12-08T00:27:33.982Z,-1.98
2022-12-08T00:30:40.112Z,-1.70
2022-12-08T00:33:42.605Z,-1.92
2022-12-08T00:36:45.502Z,-1.79
2022-12-08T00:39:48.187Z,-1.75
2022-12-08T00:42:50.626Z,-1.74
2022-12-08T00:45:53.156Z,-1.74
2022-12-08T00:48:55.631Z,-1.73
2022-12-08T00:51:58.097Z,-1.65
2022-12-08T00:55:00.701Z,-1.64
2022-12-08T00:58:03.172Z,-1.70
2022-12-08T01:01:11.004Z,-1.67
2022-12-08T01:04:18.483Z,-1.86
2022-12-08T01:07:20.947Z,-2.00
2022-12-08T01:10:23.580Z,-1.81
2022-12-08T01:13:26.003Z,-1.89
2022-12-08T01:16:31.201Z,-1.83
2022-12-08T01:19:33.847Z,-1.93
2022-12-08T01:22:36.267Z,-1.82
2022-12-08T01:25:38.657Z,-1.74
2022-12-08T01:28:41.826Z,-1.72
2022-12-08T01:31:44.235Z,-1.63
2022-12-08T01:34:46.823Z,-1.59
2022-12-08T01:37:50.195Z,-1.45
2022-12-08T01:40:52.600Z,-1.65
2022-12-08T01:44:08.299Z,-1.38
2022-12-08T01:47:11.719Z,-1.65
2022-12-08T01:50:16.120Z,-1.86
2022-12-08T01:53:30.805Z,-1.85
2022-12-08T01:56:40.621Z,-1.69
2022-12-08T01:59:52.389Z,-1.52
2022-12-08T02:03:00.852Z,-1.47
2022-12-08T02:06:04.008Z,-1.46
2022-12-08T02:09:06.802Z,-1.63
2022-12-08T02:12:10.325Z,-1.86
2022-12-08T02:15:13.019Z,-1.69
2022-12-08T02:18:35.513Z,-1.66
2022-12-08T02:21:58.660Z,-1.73
2022-12-08T02:25:25.365Z,-1.85
2022-12-08T02:29:29.709Z,-1.90
2022-12-08T02:32:53.646Z,-1.77
2022-12-08T02:35:58.925Z,-1.67
2022-12-08T02:39:12.009Z,-1.51
2022-12-08T02:42:14.327Z,-1.43
2022-12-08T02:45:26.872Z,-1.39
2022-12-08T02:48:29.962Z,-1.40
2022-12-08T02:51:32.435Z,-1.32
2022-12-08T02:54:36.510Z,-1.61
2022-12-08T02:58:00.600Z,-1.42
2022-12-08T03:01:23.121Z,-2.05
2022-12-08T03:04:34.633Z,-1.95
2022-12-08T03:07:53.995Z,-1.94
2022-12-08T03:11:00.065Z,-1.86
2022-12-08T03:14:04.387Z,-1.52
2022-12-08T03:17:07.219Z,-1.38
2022-12-08T03:20:13.251Z,-1.45
2022-12-08T03:23:17.628Z,-1.20
2022-12-08T03:26:28.871Z,-1.29
2022-12-08T03:29:32.545Z,-1.15
2022-12-08T03:32:49.461Z,-1.20
2022-12-08T03:35:53.120Z,-1.39
2022-12-08T03:38:55.663Z,-1.48
2022-12-08T03:41:58.939Z,-1.45
2022-12-08T03:45:01.282Z,-1.35
2022-12-08T03:48:03.775Z,-1.53
2022-12-08T03:51:06.287Z,-1.47
2022-12-08T03:54:08.746Z,-1.93
2022-12-08T03:57:11.233Z,-2.10
2022-12-08T04:00:15.928Z,-1.97
2022-12-08T04:03:18.434Z,-2.02
2022-12-08T04:06:21.761Z,-1.98
2022-12-08T04:09:24.194Z,-2.12
2022-12-08T04:12:26.575Z,-1.95
2022-12-08T04:15:29.081Z,-2.01
2022-12-08T04:18:32.304Z,-2.05
2022-12-08T04:21:34.717Z,-1.87
2022-12-08T04:24:37.139Z,-2.06
2022-12-08T04:27:39.630Z,-1.93
2022-12-08T04:30:42.242Z,-2.05
2022-12-08T04:33:45.067Z,-2.03
2022-12-08T04:36:47.449Z,-2.21
2022-12-08T04:39:50.849Z,-2.13
2022-12-08T04:42:53.260Z,-2.27
2022-12-08T04:45:56.028Z,-2.15
2022-12-08T04:48:58.851Z,-2.19
2022-12-08T04:52:01.297Z,-2.15
2022-12-08T04:55:04.467Z,-2.24
2022-12-08T04:58:06.980Z,-2.34
2022-12-08T05:01:09.559Z,-2.23
2022-12-08T05:04:12.032Z,-2.15
2022-12-08T05:07:14.420Z,-2.36
2022-12-08T05:10:17.107Z,-2.20
2022-12-08T05:13:19.565Z,-2.36
2022-12-08T05:16:22.065Z,-2.27
2022-12-08T05:19:24.766Z,-2.55
2022-12-08T05:22:27.179Z,-2.28
2022-12-08T05:25:29.695Z,-2.16
2022-12-08T05:28:41.157Z,-2.12
2022-12-08T05:31:44.607Z,-2.27
2022-12-08T05:34:47.070Z,-2.35
2022-12-08T05:37:49.583Z,-2.30
2022-12-08T05:40:52.037Z,-2.23
2022-12-08T05:43:54.501Z,-2.38
2022-12-08T05:46:56.939Z,-2.48
2022-12-08T05:49:59.351Z,-2.24
2022-12-08T05:53:01.820Z,-2.31
2022-12-08T05:56:04.395Z,-2.32
2022-12-08T05:59:07.633Z,-2.72
2022-12-08T06:02:10.352Z,-2.77
2022-12-08T06:05:12.939Z,-2.63
2022-12-08T06:08:15.585Z,-2.44
2022-12-08T06:11:26.667Z,-2.38
2022-12-08T06:14:29.258Z,-2.20
2022-12-08T06:17:31.701Z,-1.96
2022-12-08T06:20:34.784Z,-2.09
2022-12-08T06:23:37.906Z,-2.20
2022-12-08T06:26:41.497Z,-2.16
2022-12-08T06:29:43.931Z,-1.89
2022-12-08T06:32:46.373Z,-1.81
2022-12-08T06:35:48.821Z,-1.75
2022-12-08T06:38:51.258Z,-1.48
2022-12-08T06:42:11.916Z,-1.46
2022-12-08T06:45:16.712Z,-1.37
2022-12-08T06:48:19.460Z,-1.38
2022-12-08T06:51:23.481Z,-1.39
2022-12-08T06:54:26.629Z,-1.32
2022-12-08T06:57:29.145Z,-1.29
2022-12-08T07:00:31.600Z,-1.07
2022-12-08T07:03:34.149Z,-1.03
2022-12-08T07:06:36.920Z,-1.13
2022-12-08T07:09:39.480Z,-0.99
2022-12-08T07:12:41.975Z,-0.83
2022-12-08T07:15:44.661Z,-0.83
2022-12-08T07:18:47.116Z,-0.78
2022-12-08T07:21:49.820Z,-0.66
2022-12-08T07:24:52.284Z,-0.62
2022-12-08T07:27:54.823Z,-0.67
2022-12-08T07:30:57.314Z,-0.40
2022-12-08T07:34:00.536Z,-0.39
2022-12-08T07:37:02.969Z,-0.40
2022-12-08T07:40:07.596Z,-0.40
2022-12-08T07:43:10.244Z,-0.46
2022-12-08T07:46:14.661Z,-0.25
2022-12-08T07:49:17.300Z,-0.30
2022-12-08T07:52:19.852Z,-0.25
2022-12-08T07:55:22.292Z,-0.20
2022-12-08T07:58:25.777Z,-0.04
2022-12-08T08:01:30.759Z,0.03
2022-12-08T08:04:33.417Z,0.17
2022-12-08T08:07:37.242Z,0.19
2022-12-08T08:10:39.833Z,-0.12
2022-12-08T08:13:42.253Z,0.10
2022-12-08T08:16:47.456Z,-0.11
2022-12-08T08:19:50.104Z,-0.16
2022-12-08T08:22:52.659Z,-0.33
2022-12-08T08:25:55.065Z,-0.03
2022-12-08T08:28:57.635Z,-0.08
2022-12-08T08:32:00.285Z,-0.10
2022-12-08T08:35:06.242Z,0.04
2022-12-08T08:38:08.808Z,0.13
2022-12-08T08:41:11.645Z,0.19
2022-12-08T08:44:15.058Z,0.02
2022-12-08T08:47:17.487Z,0.21
2022-12-08T08:50:19.876Z,0.25
2022-12-08T08:53:22.939Z,0.37
2022-12-08T08:56:26.104Z,0.36
2022-12-08T08:59:29.042Z,0.32
2022-12-08T09:02:31.541Z,0.61
2022-12-08T09:05:34.169Z,0.72
2022-12-08T09:08:36.553Z,0.63
2022-12-08T09:11:40.714Z,0.52
2022-12-08T09:14:43.201Z,0.75
2022-12-08T09:17:45.686Z,0.95
2022-12-08T09:20:48.126Z,0.99
2022-12-08T09:23:52.869Z,0.71
2022-12-08T09:26:55.295Z,0.72
2022-12-08T09:29:57.993Z,0.56
2022-12-08T09:33:00.654Z,0.56
2022-12-08T09:36:04.043Z,0.79
2022-12-08T09:39:07.248Z,0.89
2022-12-08T09:42:10.450Z,0.97
2022-12-08T09:45:14.860Z,0.96
2022-12-08T09:48:33.408Z,1.02
2022-12-08T09:51:38.766Z,1.17
2022-12-08T09:54:41.339Z,1.50
2022-12-08T09:57:44.828Z,1.38
2022-12-08T10:00:47.632Z,1.60
2022-12-08T10:03:50.198Z,1.56
2022-12-08T10:06:52.557Z,1.59
2022-12-08T10:10:03.707Z,1.87
2022-12-08T10:13:24.481Z,1.85
2022-12-08T10:16:37.089Z,2.19
2022-12-08T10:19:40.938Z,2.09
2022-12-08T10:22:45.096Z,2.25
2022-12-08T10:25:49.946Z,2.25
2022-12-08T10:28:52.688Z,2.47
2022-12-08T10:31:59.991Z,2.38
2022-12-08T10:35:08.431Z,2.23
2022-12-08T10:38:21.645Z,2.43
2022-12-08T10:41:24.966Z,2.52
2022-12-08T10:44:27.492Z,2.61
2022-12-08T10:47:30.640Z,2.75
2022-12-08T10:50:46.434Z,2.68
2022-12-08T10:53:48.915Z,2.69
2022-12-08T10:56:55.905Z,2.99
2022-12-08T10:59:59.070Z,3.07
2022-12-08T11:03:05.340Z,3.25
2022-12-08T11:06:15.824Z,3.39
2022-12-08T11:09:18.548Z,3.29
2022-12-08T11:12:22.516Z,3.05
2022-12-08T11:15:33.290Z,2.99
2022-12-08T11:18:44.656Z,2.71
2022-12-08T11:21:47.817Z,2.62
2022-12-08T11:25:03.674Z,2.86
2022-12-08T11:28:09.886Z,2.77
2022-12-08T11:31:21.150Z,2.74
2022-12-08T11:35:02.063Z,2.89
2022-12-08T11:38:21.536Z,2.66
2022-12-08T11:41:29.054Z,2.65
2022-12-08T11:44:51.608Z,3.20
2022-12-08T11:48:21.787Z,3.24
2022-12-08T11:51:29.751Z,3.23
2022-12-08T11:54:53.469Z,3.53
2022-12-08T11:57:57.927Z,3.43
2022-12-08T12:01:01.498Z,3.56
2022-12-08T12:04:19.899Z,3.50
2022-12-08T12:07:37.772Z,3.30
2022-12-08T12:10:58.332Z,3.40
2022-12-08T12:14:21.493Z,3.18
2022-12-08T12:17:48.399Z,3.31
2022-12-08T12:20:58.370Z,3.41
2022-12-08T12:24:06.682Z,3.15
2022-12-08T12:27:23.767Z,2.66
2022-12-08T12:30:28.168Z,2.37
2022-12-08T12:33:31.472Z,2.23
2022-12-08T12:37:03.272Z,2.05
2022-12-08T12:40:28.171Z,2.10
2022-12-08T12:43:36.336Z,1.84
2022-12-08T12:46:50.888Z,1.76
2022-12-08T12:50:05.778Z,1.64
2022-12-08T12:53:37.533Z,1.75
2022-12-08T12:56:48.502Z,1.63
2022-12-08T12:59:55.826Z,1.62
2022-12-08T13:02:59.163Z,1.57
2022-12-08T13:06:02.423Z,1.40
2022-12-08T13:09:07.291Z,1.38
2022-12-08T13:12:20.268Z,1.40
2022-12-08T13:15:22.799Z,1.47
2022-12-08T13:18:28.742Z,1.34
2022-12-08T13:21:38.854Z,1.41
2022-12-08T13:24:42.274Z,1.53
2022-12-08T13:27:53.124Z,1.50
2022-12-08T13:31:02.963Z,1.49
2022-12-08T13:34:07.275Z,1.62
2022-12-08T13:37:13.710Z,1.70
2022-12-08T13:40:24.400Z,1.76
2022-12-08T13:43:47.280Z,1.73
2022-12-08T13:47:25.073Z,1.68
2022-12-08T13:57:29.992Z,1.48
2022-12-08T14:00:32.874Z,1.53
2022-12-08T14:04:12.904Z,1.52
2022-12-08T14:07:13.003Z,1.43
2022-12-08T14:10:22.598Z,1.42
2022-12-08T14:13:25.032Z,1.43
2022-12-08T14:16:37.653Z,1.35
2022-12-08T14:19:43.497Z,1.28
2022-12-08T14:22:46.728Z,1.26
2022-12-08T14:25:49.165Z,1.22
2022-12-08T14:28:51.734Z,1.22
2022-12-08T14:31:54.189Z,1.34
2022-12-08T14:35:18.870Z,1.46
2022-12-08T14:38:22.885Z,1.41
2022-12-08T14:41:32.416Z,1.42
2022-12-08T14:44:39.085Z,1.38
2022-12-08T14:47:41.691Z,1.37
2022-12-08T14:51:01.897Z,1.54
2022-12-08T14:54:14.244Z,1.46
2022-12-08T14:57:16.893Z,1.57
2022-12-08T15:00:21.074Z,1.52
2022-12-08T15:03:24.748Z,1.52
2022-12-08T15:06:27.222Z,1.52
2022-12-08T15:09:31.096Z,1.54
2022-12-08T15:12:33.573Z,1.45
2022-12-08T15:15:47.552Z,1.35
2022-12-08T15:19:02.476Z,1.31
2022-12-08T15:22:14.054Z,1.29
2022-12-08T15:25:16.536Z,1.40
2022-12-08T15:28:23.984Z,1.35
2022-12-08T15:31:29.128Z,1.31
2022-12-08T15:34:31.680Z,1.49
2022-12-08T15:37:34.128Z,1.51
2022-12-08T15:40:36.542Z,1.58
2022-12-08T15:43:38.893Z,1.51
2022-12-08T15:46:41.307Z,1.63
2022-12-08T15:49:44.099Z,1.50
2022-12-08T15:52:47.485Z,1.50
2022-12-08T15:56:19.089Z,1.63
2022-12-08T15:59:20.934Z,1.56
2022-12-08T16:02:25.241Z,1.45
2022-12-08T16:06:01.739Z,1.51
2022-12-08T16:09:06.150Z,1.66
2022-12-08T16:16:07.917Z,1.64
2022-12-08T16:19:14.240Z,1.70
2022-12-08T16:26:17.089Z,1.67
2022-12-08T16:29:11.062Z,1.80
2022-12-08T16:32:14.826Z,1.75
2022-12-08T16:35:17.476Z,1.78
2022-12-08T16:38:19.925Z,1.93
2022-12-08T16:41:40.721Z,1.75
2022-12-08T16:44:43.168Z,1.78
2022-12-08T16:47:56.585Z,1.63
2022-12-08T16:50:59.062Z,1.66
2022-12-08T16:54:01.468Z,1.66
2022-12-08T16:57:03.914Z,1.64
2022-12-08T17:00:09.126Z,1.96
2022-12-08T17:03:14.754Z,2.26
2022-12-08T17:06:18.828Z,2.07
2022-12-08T17:09:21.387Z,2.22
2022-12-08T17:12:23.883Z,2.11
2022-12-08T17:15:26.345Z,2.07
2022-12-08T17:18:29.095Z,2.06
2022-12-08T17:21:32.146Z,1.83
2022-12-08T17:24:34.612Z,1.61
2022-12-08T17:27:37.988Z,1.70
2022-12-08T17:30:40.391Z,1.80
2022-12-08T17:33:43.149Z,1.77
2022-12-08T17:36:45.648Z,1.84
2022-12-08T17:39:48.374Z,1.97
2022-12-08T17:42:50.734Z,1.96
2022-12-08T17:45:53.509Z,2.18
2022-12-08T17:48:56.290Z,2.26
2022-12-08T17:52:01.512Z,2.42
2022-12-08T17:55:04.200Z,2.43
2022-12-08T17:58:07.748Z,2.60
2022-12-08T18:01:11.289Z,2.77
2022-12-08T18:04:13.875Z,2.85
2022-12-08T18:07:16.341Z,2.81
2022-12-08T18:10:19.366Z,2.82
2022-12-08T18:13:22.021Z,2.84
2022-12-08T18:16:26.176Z,2.78
2022-12-08T18:19:28.956Z,2.86
2022-12-08T18:22:32.609Z,2.92
2022-12-08T18:25:35.906Z,3.08
2022-12-08T18:28:38.922Z,3.13
2022-12-08T18:31:41.352Z,3.04
2022-12-08T18:34:43.857Z,2.99
2022-12-08T18:37:47.076Z,2.90
2022-12-08T18:40:49.793Z,2.80
2022-12-08T18:43:53.484Z,2.82
2022-12-08T18:46:56.198Z,2.80
2022-12-08T18:50:00.200Z,2.74
2022-12-08T18:53:02.849Z,2.70
2022-12-08T18:56:06.247Z,2.58
2022-12-08T18:59:12.006Z,2.72
2022-12-08T19:02:14.982Z,2.71
2022-12-08T19:05:17.647Z,2.65
2022-12-08T19:08:20.726Z,2.64
2022-12-08T19:11:25.894Z,2.68
2022-12-08T19:14:30.441Z,2.78
2022-12-08T19:17:33.232Z,2.88
2022-12-08T19:20:36.226Z,2.89
2022-12-08T19:23:40.151Z,2.92
2022-12-08T19:26:43.273Z,2.73
2022-12-08T19:29:45.952Z,2.89
2022-12-08T19:32:50.124Z,3.09
2022-12-08T19:35:53.814Z,2.87
2022-12-08T19:39:15.081Z,2.97
2022-12-08T19:42:38.208Z,2.93
2022-12-08T19:45:40.980Z,3.19
2022-12-08T19:48:44.215Z,3.03
2022-12-08T19:51:47.011Z,3.22
2022-12-08T19:54:49.616Z,3.28
2022-12-08T19:57:52.664Z,3.23
2022-12-08T20:00:55.581Z,3.19
2022-12-08T20:03:58.228Z,3.14
2022-12-08T20:07:02.133Z,3.12
2022-12-08T20:10:07.960Z,3.29
2022-12-08T20:13:29.990Z,3.40
2022-12-08T20:16:32.837Z,3.25
2022-12-08T20:19:35.618Z,3.18
2022-12-08T20:22:38.736Z,3.24
2022-12-08T20:25:43.140Z,3.16
2022-12-08T20:28:45.963Z,2.95
2022-12-08T20:31:48.891Z,3.03
2022-12-08T20:34:52.031Z,2.94
2022-12-08T20:37:54.698Z,2.86
2022-12-08T20:40:58.516Z,3.04
2022-12-08T20:44:01.635Z,3.00
2022-12-08T20:47:04.378Z,2.98
2022-12-08T20:50:08.596Z,2.88
2022-12-08T20:53:11.578Z,2.90
2022-12-08T20:56:19.236Z,3.10
2022-12-08T20:59:21.978Z,3.07
2022-12-08T21:02:28.012Z,3.02
2022-12-08T21:05:31.044Z,3.24
2022-12-08T21:08:33.674Z,3.13
2022-12-08T21:11:36.546Z,3.12
2022-12-08T21:14:40.107Z,3.18
2022-12-08T21:17:42.709Z,3.17
2022-12-08T21:20:45.500Z,3.15
2022-12-08T21:23:48.092Z,3.21
2022-12-08T21:26:50.730Z,3.07
2022-12-08T21:29:53.246Z,3.25
2022-12-08T21:32:55.967Z,3.24
2022-12-08T21:36:03.183Z,3.19
2022-12-08T21:39:11.305Z,3.37
2022-12-08T21:42:34.220Z,3.23
2022-12-08T21:45:37.189Z,3.18
2022-12-08T21:48:39.761Z,3.07
2022-12-08T21:51:43.186Z,3.18
2022-12-08T21:54:45.810Z,3.08
2022-12-08T21:57:48.247Z,3.25
2022-12-08T22:00:50.742Z,3.15
2022-12-08T22:03:53.462Z,3.18
2022-12-08T22:06:56.132Z,3.08
2022-12-08T22:09:58.528Z,3.16
2022-12-08T22:13:00.912Z,3.09
2022-12-08T22:16:08.091Z,3.08
2022-12-08T22:19:10.695Z,3.03
2022-12-08T22:22:16.237Z,2.95
2022-12-08T22:25:18.785Z,3.03
2022-12-08T22:28:21.163Z,2.89
2022-12-08T22:31:23.735Z,2.84
2022-12-08T22:34:26.250Z,2.83
2022-12-08T22:37:28.604Z,3.00
2022-12-08T22:40:31.141Z,2.95
2022-12-08T22:43:34.035Z,2.99
2022-12-08T22:46:36.512Z,2.96
2022-12-08T22:49:38.973Z,2.97
2022-12-08T22:52:41.687Z,2.90
2022-12-08T22:55:44.752Z,2.75
2022-12-08T22:58:48.642Z,2.81
2022-12-08T23:01:51.053Z,2.76
2022-12-08T23:04:56.970Z,2.62
2022-12-08T23:07:59.950Z,2.61
2022-12-08T23:11:02.533Z,2.45
2022-12-08T23:14:04.952Z,2.39
2022-12-08T23:17:08.213Z,2.32
2022-12-08T23:20:11.834Z,2.34
2022-12-08T23:23:14.447Z,2.37
2022-12-08T23:26:19.019Z,2.41
2022-12-08T23:29:21.786Z,2.41
2022-12-08T23:32:24.746Z,2.25
2022-12-08T23:35:27.474Z,2.24
2022-12-08T23:38:30.321Z,2.26
2022-12-08T23:41:33.198Z,2.21
2022-12-08T23:44:35.772Z,2.25
2022-12-08T23:47:38.266Z,2.30
2022-12-08T23:50:40.640Z,2.31
2022-12-08T23:53:44.074Z,2.34
2022-12-08T23:56:46.773Z,2.39
2022-12-08T23:59:49.344Z,2.36
